createdAt,value
2018-09-28T00:00:44.272Z,2.30
2018-09-28T00:01:47.323Z,2.47
2018-09-28T00:02:50.766Z,2.40
2018-09-28T00:03:53.751Z,2.47
2018-09-28T00:04:57.007Z,2.37
2018-09-28T00:06:02.899Z,2.15
2018-09-28T00:07:06.203Z,2.05
2018-09-28T00:08:09.622Z,2.30
2018-09-28T00:09:12.629Z,2.37
2018-09-28T00:10:16.347Z,2.10
2018-09-28T00:11:20.549Z,2.30
2018-09-28T00:12:23.599Z,2.42
2018-09-28T00:13:26.678Z,2.20
2018-09-28T00:14:30.125Z,2.27
2018-09-28T00:15:33.904Z,2.25
2018-09-28T00:16:36.955Z,2.47
2018-09-28T00:17:40.022Z,2.05
2018-09-28T00:18:43.315Z,2.33
2018-09-28T00:19:46.355Z,2.15
2018-09-28T00:20:49.871Z,2.20
2018-09-28T00:21:53.334Z,2.58
2018-09-28T00:23:02.782Z,2.33
2018-09-28T00:24:06.496Z,2.30
2018-09-28T00:25:09.646Z,2.00
2018-09-28T00:26:16.000Z,2.00
2018-09-28T00:27:19.054Z,2.20
2018-09-28T00:28:22.125Z,2.50
2018-09-28T00:29:25.128Z,2.15
2018-09-28T00:30:29.444Z,2.30
2018-09-28T00:31:34.682Z,2.02
2018-09-28T00:32:37.686Z,2.20
2018-09-28T00:33:42.333Z,2.20
2018-09-28T00:34:45.390Z,2.47
2018-09-28T00:35:48.394Z,2.37
2018-09-28T00:36:52.582Z,2.30
2018-09-28T00:37:55.695Z,2.50
2018-09-28T00:38:58.719Z,2.50
2018-09-28T00:40:02.438Z,2.37
2018-09-28T00:41:06.133Z,2.67
2018-09-28T00:42:09.228Z,2.30
2018-09-28T00:43:12.927Z,2.42
2018-09-28T00:44:16.003Z,2.30
2018-09-28T00:45:19.044Z,2.42
2018-09-28T00:46:23.016Z,2.42
2018-09-28T00:47:26.766Z,2.27
2018-09-28T00:48:29.855Z,2.25
2018-09-28T00:49:32.898Z,2.25
2018-09-28T00:50:36.822Z,2.40
2018-09-28T00:51:41.112Z,2.42
2018-09-28T00:52:44.943Z,2.20
2018-09-28T00:53:48.012Z,2.40
2018-09-28T00:54:51.029Z,2.30
2018-09-28T00:55:54.073Z,2.40
2018-09-28T00:56:57.074Z,2.20
2018-09-28T00:58:00.889Z,2.30
2018-09-28T00:59:04.497Z,2.08
2018-09-28T01:00:08.179Z,2.30
2018-09-28T01:01:11.715Z,2.40
2018-09-28T01:02:16.013Z,2.35
2018-09-28T01:03:19.202Z,2.12
2018-09-28T01:04:22.409Z,2.25
2018-09-28T01:05:25.539Z,2.30
2018-09-28T01:06:29.093Z,2.40
2018-09-28T01:07:32.154Z,2.20
2018-09-28T01:08:35.843Z,2.40
2018-09-28T01:09:38.913Z,2.45
2018-09-28T01:10:42.199Z,2.47
2018-09-28T01:11:46.142Z,2.20
2018-09-28T01:12:49.207Z,2.47
2018-09-28T01:13:53.141Z,2.20
2018-09-28T01:14:56.191Z,2.40
2018-09-28T01:16:00.016Z,2.40
2018-09-28T01:17:03.707Z,2.33
2018-09-28T01:18:10.067Z,2.55
2018-09-28T01:19:13.178Z,2.27
2018-09-28T01:20:17.166Z,2.42
2018-09-28T01:21:21.039Z,2.58
2018-09-28T01:22:24.643Z,2.20
2018-09-28T01:23:28.611Z,2.33
2018-09-28T01:24:31.717Z,2.10
2018-09-28T01:25:36.331Z,2.50
2018-09-28T01:26:39.439Z,2.35
2018-09-28T01:27:42.454Z,2.15
2018-09-28T01:28:45.565Z,2.02
2018-09-28T01:29:49.196Z,2.47
2018-09-28T01:30:52.365Z,2.52
2018-09-28T01:31:58.361Z,2.30
2018-09-28T01:33:03.625Z,2.50
2018-09-28T01:34:07.171Z,2.50
2018-09-28T01:35:10.167Z,2.37
2018-09-28T01:36:13.203Z,2.20
2018-09-28T01:37:16.354Z,2.40
2018-09-28T01:38:20.986Z,2.25
2018-09-28T01:39:24.148Z,2.40
2018-09-28T01:40:28.019Z,2.37
2018-09-28T01:41:33.043Z,2.10
2018-09-28T01:42:38.201Z,2.10
2018-09-28T01:43:41.924Z,2.47
2018-09-28T01:44:46.644Z,2.40
2018-09-28T01:45:49.750Z,2.20
2018-09-28T01:46:53.470Z,2.47
2018-09-28T01:47:57.039Z,2.35
2018-09-28T01:49:00.116Z,2.30
2018-09-28T01:50:04.871Z,2.20
2018-09-28T01:51:08.547Z,2.25
2018-09-28T01:52:12.451Z,2.27
2018-09-28T01:53:17.278Z,2.47
2018-09-28T01:54:20.585Z,2.40
2018-09-28T01:55:23.658Z,2.15
2018-09-28T01:56:26.708Z,2.30
2018-09-28T01:57:30.350Z,2.37
2018-09-28T01:58:34.582Z,2.50
2018-09-28T01:59:37.613Z,2.47
2018-09-28T02:00:41.947Z,2.30
2018-09-28T02:01:45.047Z,2.15
2018-09-28T02:02:48.751Z,2.30
2018-09-28T02:03:52.263Z,2.30
2018-09-28T02:04:55.365Z,2.00
2018-09-28T02:05:58.987Z,2.17
2018-09-28T02:07:02.062Z,2.27
2018-09-28T02:08:05.974Z,2.65
2018-09-28T02:09:10.294Z,2.40
2018-09-28T02:10:13.333Z,2.40
2018-09-28T02:11:16.505Z,2.50
2018-09-28T02:12:19.683Z,2.40
2018-09-28T02:13:23.373Z,2.45
2018-09-28T02:14:28.398Z,2.30
2018-09-28T02:15:31.575Z,2.45
2018-09-28T02:16:37.126Z,2.22
2018-09-28T02:17:40.238Z,2.30
2018-09-28T02:18:45.801Z,2.45
2018-09-28T02:19:49.446Z,2.42
2018-09-28T02:20:52.605Z,2.37
2018-09-28T02:21:55.698Z,2.65
2018-09-28T02:22:58.726Z,2.52
2018-09-28T02:24:01.784Z,2.40
2018-09-28T02:25:04.827Z,2.30
2018-09-28T02:26:08.327Z,2.45
2018-09-28T02:27:11.381Z,2.47
2018-09-28T02:28:15.326Z,2.17
2018-09-28T02:29:18.587Z,2.40
2018-09-28T02:30:22.073Z,2.37
2018-09-28T02:31:25.205Z,2.30
2018-09-28T02:32:28.355Z,2.58
2018-09-28T02:33:31.546Z,2.42
2018-09-28T02:34:34.953Z,2.40
2018-09-28T02:35:38.032Z,2.33
2018-09-28T02:36:42.847Z,2.30
2018-09-28T02:37:46.470Z,2.62
2018-09-28T02:38:49.561Z,2.60
2018-09-28T02:39:52.977Z,2.35
2018-09-28T02:40:56.022Z,2.52
2018-09-28T02:41:59.698Z,2.50
2018-09-28T02:43:03.615Z,2.40
2018-09-28T02:44:06.644Z,2.47
2018-09-28T02:45:10.114Z,2.30
2018-09-28T02:46:13.975Z,2.37
2018-09-28T02:47:17.023Z,2.60
2018-09-28T02:48:20.158Z,2.52
2018-09-28T02:49:23.873Z,2.02
2018-09-28T02:50:27.393Z,2.80
2018-09-28T02:51:30.949Z,2.60
2018-09-28T02:52:34.619Z,2.30
2018-09-28T02:53:38.167Z,2.50
2018-09-28T02:54:41.235Z,2.70
2018-09-28T02:55:44.584Z,2.55
2018-09-28T02:56:47.761Z,2.40
2018-09-28T02:57:51.362Z,2.33
2018-09-28T02:58:55.712Z,2.25
2018-09-28T02:59:58.767Z,2.22
2018-09-28T03:01:01.910Z,2.30
2018-09-28T03:02:04.963Z,2.20
2018-09-28T03:03:08.058Z,2.37
2018-09-28T03:04:11.118Z,2.40
2018-09-28T03:05:14.663Z,2.50
2018-09-28T03:06:17.748Z,2.55
2018-09-28T03:07:21.614Z,2.27
2018-09-28T03:08:26.347Z,2.25
2018-09-28T03:09:29.451Z,2.52
2018-09-28T03:10:32.482Z,2.40
2018-09-28T03:11:36.186Z,2.47
2018-09-28T03:12:39.254Z,2.40
2018-09-28T03:13:42.285Z,2.50
2018-09-28T03:14:45.488Z,2.50
2018-09-28T03:15:48.529Z,2.42
2018-09-28T03:16:51.565Z,2.35
2018-09-28T03:17:55.611Z,2.50
2018-09-28T03:18:58.784Z,2.40
2018-09-28T03:20:02.444Z,2.40
2018-09-28T03:21:05.534Z,2.20
2018-09-28T03:22:08.905Z,2.60
2018-09-28T03:23:11.950Z,2.10
2018-09-28T03:24:15.408Z,2.20
2018-09-28T03:25:18.603Z,2.45
2018-09-28T03:26:22.474Z,2.50
2018-09-28T03:27:26.003Z,2.33
2018-09-28T03:28:28.986Z,2.30
2018-09-28T03:29:31.999Z,2.45
2018-09-28T03:30:35.055Z,2.20
2018-09-28T03:31:38.575Z,2.30
2018-09-28T03:32:42.948Z,2.30
2018-09-28T03:33:46.200Z,2.40
2018-09-28T03:34:49.511Z,2.35
2018-09-28T03:35:52.562Z,2.40
2018-09-28T03:36:55.578Z,2.50
2018-09-28T03:37:59.207Z,2.70
2018-09-28T03:39:02.233Z,2.55
2018-09-28T03:40:06.145Z,2.22
2018-09-28T03:41:09.923Z,2.40
2018-09-28T03:42:12.977Z,2.60
2018-09-28T03:43:17.098Z,2.35
2018-09-28T03:44:20.080Z,2.50
2018-09-28T03:45:23.150Z,2.30
2018-09-28T03:46:26.146Z,2.52
2018-09-28T03:47:29.234Z,2.42
2018-09-28T03:48:32.283Z,2.50
2018-09-28T03:49:35.363Z,2.75
2018-09-28T03:50:38.487Z,2.10
2018-09-28T03:51:41.501Z,2.10
2018-09-28T03:52:44.487Z,2.50
2018-09-28T03:53:48.002Z,2.75
2018-09-28T03:54:51.058Z,2.30
2018-09-28T03:55:54.108Z,2.55
2018-09-28T03:56:57.135Z,2.20
2018-09-28T03:58:01.676Z,2.15
2018-09-28T03:59:05.363Z,2.37
2018-09-28T04:00:10.504Z,2.30
2018-09-28T04:01:13.526Z,2.45
2018-09-28T04:02:16.506Z,2.40
2018-09-28T04:03:19.584Z,2.30
2018-09-28T04:04:22.627Z,2.50
2018-09-28T04:05:26.639Z,2.35
2018-09-28T04:06:29.647Z,2.20
2018-09-28T04:07:32.750Z,2.27
2018-09-28T04:08:36.032Z,2.02
2018-09-28T04:09:39.131Z,2.20
2018-09-28T04:10:42.204Z,2.47
2018-09-28T04:11:45.333Z,2.60
2018-09-28T04:12:48.323Z,2.40
2018-09-28T04:13:51.346Z,2.42
2018-09-28T04:14:54.753Z,2.70
2018-09-28T04:15:57.699Z,2.45
2018-09-28T04:17:03.302Z,2.52
2018-09-28T04:18:06.308Z,2.50
2018-09-28T04:19:09.343Z,2.25
2018-09-28T04:20:12.537Z,2.30
2018-09-28T04:21:15.620Z,2.25
2018-09-28T04:22:19.114Z,2.22
2018-09-28T04:23:23.759Z,2.20
2018-09-28T04:24:27.253Z,2.37
2018-09-28T04:25:30.871Z,2.50
2018-09-28T04:26:33.898Z,2.10
2018-09-28T04:27:36.987Z,2.62
2018-09-28T04:28:40.042Z,2.40
2018-09-28T04:29:43.029Z,2.20
2018-09-28T04:30:46.229Z,2.30
2018-09-28T04:31:49.295Z,2.60
2018-09-28T04:32:52.360Z,2.20
2018-09-28T04:33:55.421Z,2.60
2018-09-28T04:34:59.138Z,2.42
2018-09-28T04:36:02.397Z,2.50
2018-09-28T04:37:05.429Z,2.65
2018-09-28T04:38:08.477Z,2.58
2018-09-28T04:39:11.480Z,2.45
2018-09-28T04:40:14.566Z,2.33
2018-09-28T04:41:18.519Z,2.50
2018-09-28T04:42:21.847Z,2.40
2018-09-28T04:43:24.824Z,2.42
2018-09-28T04:44:27.891Z,2.60
2018-09-28T04:45:30.970Z,2.40
2018-09-28T04:46:34.739Z,2.60
2018-09-28T04:47:37.709Z,2.35
2018-09-28T04:48:40.692Z,2.52
2018-09-28T04:49:43.680Z,2.72
2018-09-28T04:50:46.678Z,2.40
2018-09-28T04:51:49.666Z,2.30
2018-09-28T04:52:53.158Z,2.30
2018-09-28T04:53:56.128Z,2.12
2018-09-28T04:54:59.106Z,2.42
2018-09-28T04:56:02.358Z,2.40
2018-09-28T04:57:05.634Z,2.10
2018-09-28T04:58:08.626Z,2.25
2018-09-28T04:59:11.684Z,2.60
2018-09-28T05:00:14.693Z,2.50
2018-09-28T05:01:18.237Z,2.50
2018-09-28T05:02:21.215Z,2.30
2018-09-28T05:03:24.268Z,2.35
2018-09-28T05:04:27.295Z,2.42
2018-09-28T05:05:30.314Z,2.33
2018-09-28T05:06:33.350Z,2.30
2018-09-28T05:07:36.368Z,2.42
2018-09-28T05:08:39.395Z,2.17
2018-09-28T05:09:42.469Z,2.90
2018-09-28T05:10:45.681Z,2.50
2018-09-28T05:11:48.997Z,2.60
2018-09-28T05:12:52.373Z,2.50
2018-09-28T05:13:55.697Z,2.60
2018-09-28T05:14:59.245Z,2.50
2018-09-28T05:16:02.942Z,2.70
2018-09-28T05:17:06.158Z,2.85
2018-09-28T05:18:09.273Z,2.33
2018-09-28T05:19:12.382Z,2.70
2018-09-28T05:20:15.457Z,2.40
2018-09-28T05:21:18.509Z,2.70
2018-09-28T05:22:21.747Z,2.52
2018-09-28T05:23:24.821Z,3.00
2018-09-28T05:24:27.937Z,2.62
2018-09-28T05:25:30.903Z,2.80
2018-09-28T05:26:34.406Z,2.83
2018-09-28T05:27:37.594Z,3.00
2018-09-28T05:28:40.931Z,2.85
2018-09-28T05:29:43.965Z,2.90
2018-09-28T05:30:53.967Z,2.80
2018-09-28T05:31:50.964Z,3.02
2018-09-28T05:32:54.387Z,2.85
2018-09-28T05:33:57.475Z,3.00
2018-09-28T05:35:01.192Z,2.80
2018-09-28T05:36:04.727Z,3.20
2018-09-28T05:37:08.082Z,3.02
2018-09-28T05:38:11.178Z,3.40
2018-09-28T05:39:14.205Z,3.00
2018-09-28T05:40:18.580Z,3.33
2018-09-28T05:41:22.277Z,3.20
2018-09-28T05:42:25.313Z,3.72
2018-09-28T05:43:28.587Z,3.37
2018-09-28T05:44:31.665Z,3.42
2018-09-28T05:45:34.712Z,3.40
2018-09-28T05:46:38.418Z,3.30
2018-09-28T05:47:43.054Z,3.70
2018-09-28T05:48:47.267Z,3.75
2018-09-28T05:49:50.470Z,3.55
2018-09-28T05:50:54.195Z,3.25
2018-09-28T05:51:57.279Z,3.52
2018-09-28T05:53:00.393Z,3.37
2018-09-28T05:54:03.449Z,3.70
2018-09-28T05:55:06.487Z,3.60
2018-09-28T05:56:10.558Z,3.60
2018-09-28T05:57:13.551Z,3.75
2018-09-28T05:58:22.142Z,4.20
2018-09-28T05:59:31.151Z,3.90
2018-09-28T06:00:40.135Z,3.70
2018-09-28T06:01:48.540Z,3.80
2018-09-28T06:02:58.493Z,3.95
2018-09-28T06:04:08.931Z,3.90
2018-09-28T06:05:17.378Z,4.00
2018-09-28T06:06:20.523Z,3.70
2018-09-28T06:07:23.561Z,4.20
2018-09-28T06:08:26.834Z,3.80
2018-09-28T06:09:30.052Z,3.90
2018-09-28T06:10:33.148Z,3.60
2018-09-28T06:11:36.454Z,3.83
2018-09-28T06:12:39.469Z,3.80
2018-09-28T06:13:42.620Z,3.83
2018-09-28T06:14:46.387Z,3.70
2018-09-28T06:15:50.806Z,3.70
2018-09-28T06:16:53.822Z,3.75
2018-09-28T06:17:57.357Z,4.03
2018-09-28T06:19:00.466Z,3.65
2018-09-28T06:20:03.358Z,3.87
2018-09-28T06:21:06.375Z,3.80
2018-09-28T06:22:09.394Z,3.75
2018-09-28T06:23:12.379Z,3.87
2018-09-28T06:24:15.402Z,3.80
2018-09-28T06:25:18.385Z,4.03
2018-09-28T06:26:22.022Z,3.85
2018-09-28T06:27:25.035Z,3.83
2018-09-28T06:28:28.542Z,3.62
2018-09-28T06:29:31.570Z,3.98
2018-09-28T06:30:34.612Z,3.87
2018-09-28T06:31:37.683Z,3.50
2018-09-28T06:32:40.710Z,3.40
2018-09-28T06:33:44.242Z,3.77
2018-09-28T06:34:47.307Z,3.87
2018-09-28T06:35:51.330Z,3.35
2018-09-28T06:36:54.389Z,3.40
2018-09-28T06:37:57.390Z,3.67
2018-09-28T06:39:00.391Z,3.30
2018-09-28T06:40:03.611Z,3.58
2018-09-28T06:41:06.760Z,3.80
2018-09-28T06:42:09.920Z,3.60
2018-09-28T06:43:12.916Z,3.83
2018-09-28T06:44:16.431Z,3.40
2018-09-28T06:45:19.462Z,3.50
2018-09-28T06:46:23.534Z,3.60
2018-09-28T06:47:26.578Z,3.55
2018-09-28T06:48:29.579Z,3.50
2018-09-28T06:49:32.595Z,3.30
2018-09-28T06:50:36.253Z,3.62
2018-09-28T06:51:40.379Z,3.62
2018-09-28T06:52:43.427Z,3.52
2018-09-28T06:53:46.451Z,3.70
2018-09-28T06:54:49.447Z,3.60
2018-09-28T06:55:53.345Z,3.40
2018-09-28T06:56:56.351Z,3.47
2018-09-28T06:57:59.832Z,3.33
2018-09-28T06:59:02.803Z,3.33
2018-09-28T07:00:06.285Z,3.67
2018-09-28T07:01:09.243Z,3.17
2018-09-28T07:02:12.410Z,3.33
2018-09-28T07:03:15.415Z,3.30
2018-09-28T07:04:18.414Z,3.45
2018-09-28T07:05:21.500Z,3.50
2018-09-28T07:06:24.751Z,3.50
2018-09-28T07:07:27.790Z,3.30
2018-09-28T07:08:30.927Z,3.40
2018-09-28T07:09:34.008Z,3.67
2018-09-28T07:10:37.012Z,3.60
2018-09-28T07:11:40.215Z,3.55
2018-09-28T07:12:43.187Z,3.83
2018-09-28T07:13:47.902Z,3.37
2018-09-28T07:14:50.920Z,3.12
2018-09-28T07:15:53.953Z,3.62
2018-09-28T07:16:56.959Z,3.70
2018-09-28T07:18:00.424Z,3.70
2018-09-28T07:19:04.130Z,4.10
2018-09-28T07:20:07.191Z,3.50
2018-09-28T07:21:10.183Z,3.40
2018-09-28T07:22:13.819Z,3.45
2018-09-28T07:23:16.810Z,3.70
2018-09-28T07:24:20.125Z,4.00
2018-09-28T07:25:23.103Z,3.90
2018-09-28T07:26:26.150Z,4.12
2018-09-28T07:27:29.207Z,4.20
2018-09-28T07:28:32.896Z,4.20
2018-09-28T07:29:36.106Z,3.92
2018-09-28T07:30:39.858Z,3.60
2018-09-28T07:31:43.611Z,3.50
2018-09-28T07:32:47.043Z,3.70
2018-09-28T07:33:51.625Z,3.70
2018-09-28T07:34:56.707Z,3.83
2018-09-28T07:35:59.775Z,3.80
2018-09-28T07:37:03.122Z,3.52
2018-09-28T07:38:06.367Z,3.90
2018-09-28T07:39:11.679Z,3.80
2018-09-28T07:40:16.061Z,3.58
2018-09-28T07:41:20.171Z,4.08
2018-09-28T07:42:23.253Z,4.03
2018-09-28T07:43:29.913Z,3.80
2018-09-28T07:44:33.643Z,3.75
2018-09-28T07:45:36.713Z,3.77
2018-09-28T07:46:39.976Z,3.50
2018-09-28T07:47:43.603Z,3.70
2018-09-28T07:48:47.683Z,3.80
2018-09-28T07:49:51.601Z,3.60
2018-09-28T07:50:56.202Z,3.47
2018-09-28T07:52:00.109Z,3.83
2018-09-28T07:53:03.727Z,3.75
2018-09-28T07:54:06.992Z,3.83
2018-09-28T07:55:10.915Z,4.00
2018-09-28T07:56:14.077Z,3.80
2018-09-28T07:57:17.472Z,3.35
2018-09-28T07:58:20.519Z,3.55
2018-09-28T07:59:23.624Z,3.90
2018-09-28T08:00:28.074Z,3.50
2018-09-28T08:01:31.144Z,3.75
2018-09-28T08:02:34.173Z,3.62
2018-09-28T08:03:37.472Z,3.60
2018-09-28T08:04:40.481Z,3.60
2018-09-28T08:05:43.492Z,3.50
2018-09-28T08:06:46.518Z,3.52
2018-09-28T08:07:49.579Z,3.52
2018-09-28T08:08:54.217Z,3.65
2018-09-28T08:09:58.142Z,3.75
2018-09-28T08:11:01.183Z,4.17
2018-09-28T08:12:05.330Z,4.05
2018-09-28T08:13:08.344Z,4.60
2018-09-28T08:14:11.922Z,4.35
2018-09-28T08:15:14.923Z,4.00
2018-09-28T08:16:18.010Z,4.10
2018-09-28T08:17:21.042Z,5.37
2018-09-28T08:18:24.023Z,5.40
2018-09-28T08:19:28.195Z,5.03
2018-09-28T08:20:31.167Z,4.40
2018-09-28T08:21:34.931Z,4.33
2018-09-28T08:22:38.643Z,4.30
2018-09-28T08:23:41.603Z,4.33
2018-09-28T08:24:44.680Z,4.12
2018-09-28T08:25:47.668Z,4.78
2018-09-28T08:26:50.983Z,4.33
2018-09-28T08:27:54.647Z,4.22
2018-09-28T08:28:57.725Z,3.98
2018-09-28T08:30:01.504Z,4.30
2018-09-28T08:31:04.559Z,4.20
2018-09-28T08:32:07.955Z,4.60
2018-09-28T08:33:11.543Z,3.90
2018-09-28T08:34:14.623Z,4.08
2018-09-28T08:35:17.824Z,4.05
2018-09-28T08:36:20.908Z,4.10
2018-09-28T08:37:24.120Z,4.10
2018-09-28T08:38:27.288Z,4.25
2018-09-28T08:39:30.430Z,4.20
2018-09-28T08:40:35.137Z,3.90
2018-09-28T08:41:39.675Z,4.03
2018-09-28T08:42:42.731Z,3.90
2018-09-28T08:43:46.413Z,4.00
2018-09-28T08:44:49.498Z,3.70
2018-09-28T08:45:52.554Z,3.83
2018-09-28T08:46:56.809Z,3.77
2018-09-28T08:47:59.805Z,3.70
2018-09-28T08:49:03.352Z,3.87
2018-09-28T08:50:06.837Z,3.62
2018-09-28T08:51:09.899Z,3.80
2018-09-28T08:52:12.921Z,3.77
2018-09-28T08:53:15.903Z,3.90
2018-09-28T08:54:19.009Z,4.05
2018-09-28T08:55:22.458Z,3.60
2018-09-28T08:56:25.475Z,3.67
2018-09-28T08:57:29.175Z,3.85
2018-09-28T08:58:32.938Z,3.52
2018-09-28T08:59:35.947Z,3.60
2018-09-28T09:00:38.999Z,3.70
2018-09-28T09:01:42.019Z,4.17
2018-09-28T09:02:46.061Z,3.43
2018-09-28T09:03:49.103Z,3.77
2018-09-28T09:04:52.096Z,3.77
2018-09-28T09:05:56.167Z,4.10
2018-09-28T09:06:59.220Z,3.60
2018-09-28T09:08:02.423Z,3.90
2018-09-28T09:09:08.571Z,4.15
2018-09-28T09:10:12.058Z,3.30
2018-09-28T09:11:15.119Z,3.58
2018-09-28T09:12:18.264Z,3.70
2018-09-28T09:13:21.380Z,3.90
2018-09-28T09:14:24.418Z,3.80
2018-09-28T09:15:27.667Z,3.52
2018-09-28T09:16:31.691Z,3.80
2018-09-28T09:17:34.792Z,4.00
2018-09-28T09:18:38.059Z,3.73
2018-09-28T09:19:41.085Z,3.98
2018-09-28T09:20:44.778Z,3.75
2018-09-28T09:21:48.320Z,4.25
2018-09-28T09:22:51.343Z,4.33
2018-09-28T09:23:54.385Z,3.45
2018-09-28T09:24:57.532Z,3.62
2018-09-28T09:26:01.426Z,3.55
2018-09-28T09:27:04.853Z,3.65
2018-09-28T09:28:07.986Z,4.20
2018-09-28T09:29:11.069Z,3.85
2018-09-28T09:30:14.199Z,4.15
2018-09-28T09:31:17.163Z,4.20
2018-09-28T09:32:20.186Z,3.92
2018-09-28T09:33:23.230Z,3.90
2018-09-28T09:34:26.306Z,4.08
2018-09-28T09:35:29.417Z,3.90
2018-09-28T09:36:32.764Z,4.30
2018-09-28T09:37:35.947Z,4.20
2018-09-28T09:38:39.034Z,3.90
2018-09-28T09:39:42.005Z,4.10
2018-09-28T09:40:45.077Z,4.12
2018-09-28T09:41:48.105Z,4.00
2018-09-28T09:42:51.196Z,3.85
2018-09-28T09:43:54.215Z,3.92
2018-09-28T09:44:57.244Z,3.85
2018-09-28T09:46:00.263Z,4.20
2018-09-28T09:47:03.348Z,3.77
2018-09-28T09:48:06.338Z,3.83
2018-09-28T09:49:09.439Z,4.25
2018-09-28T09:50:12.499Z,4.47
2018-09-28T09:51:15.587Z,3.87
2018-09-28T09:52:18.663Z,3.95
2018-09-28T09:53:21.712Z,3.45
2018-09-28T09:54:24.725Z,4.10
2018-09-28T09:55:27.715Z,3.77
2018-09-28T09:56:30.899Z,4.05
2018-09-28T09:57:33.986Z,3.72
2018-09-28T09:58:37.019Z,3.83
2018-09-28T09:59:40.050Z,3.87
2018-09-28T10:00:48.542Z,3.90
2018-09-28T10:01:57.062Z,4.00
2018-09-28T10:03:00.488Z,3.77
2018-09-28T10:04:07.510Z,4.05
2018-09-28T10:05:10.730Z,4.30
2018-09-28T10:06:13.738Z,6.80
2018-09-28T10:07:16.768Z,6.87
2018-09-28T10:08:19.784Z,5.12
2018-09-28T10:09:22.783Z,5.67
2018-09-28T10:10:25.762Z,4.92
2018-09-28T10:11:28.807Z,5.03
2018-09-28T10:12:32.408Z,4.90
2018-09-28T10:13:35.354Z,4.80
2018-09-28T10:14:38.394Z,4.47
2018-09-28T10:15:41.551Z,4.70
2018-09-28T10:16:44.538Z,4.53
2018-09-28T10:17:47.661Z,4.65
2018-09-28T10:18:50.796Z,4.10
2018-09-28T10:19:53.776Z,3.72
2018-09-28T10:20:56.781Z,4.70
2018-09-28T10:21:59.845Z,4.15
2018-09-28T10:23:02.846Z,4.28
2018-09-28T10:24:05.865Z,4.05
2018-09-28T10:25:08.994Z,4.50
2018-09-28T10:26:12.022Z,4.08
2018-09-28T10:27:15.028Z,4.45
2018-09-28T10:28:18.274Z,4.40
2018-09-28T10:29:21.188Z,4.47
2018-09-28T10:30:24.235Z,4.30
2018-09-28T10:31:27.241Z,4.37
2018-09-28T10:32:30.251Z,4.27
2018-09-28T10:33:33.285Z,4.62
2018-09-28T10:34:36.271Z,4.60
2018-09-28T10:35:39.244Z,4.37
2018-09-28T10:36:42.231Z,4.30
2018-09-28T10:37:45.437Z,4.12
2018-09-28T10:38:48.381Z,4.33
2018-09-28T10:39:51.451Z,4.80
2018-09-28T10:40:54.612Z,4.35
2018-09-28T10:41:57.510Z,2.95
2018-09-28T10:43:00.544Z,2.90
2018-09-28T10:44:04.043Z,3.72
2018-09-28T10:45:07.397Z,4.10
2018-09-28T10:46:10.448Z,4.47
2018-09-28T10:47:13.422Z,4.45
2018-09-28T10:48:16.449Z,4.20
2018-09-28T10:49:19.584Z,3.70
2018-09-28T10:50:22.559Z,7.25
2018-09-28T10:51:25.635Z,6.97
2018-09-28T10:52:28.755Z,6.20
2018-09-28T10:53:31.706Z,5.08
2018-09-28T10:54:34.787Z,4.40
2018-09-28T10:55:37.838Z,4.53
2018-09-28T10:56:40.871Z,4.80
2018-09-28T10:57:43.869Z,4.25
2018-09-28T10:58:46.981Z,5.10
2018-09-28T10:59:49.937Z,5.67
2018-09-28T11:00:53.010Z,6.53
2018-09-28T11:01:56.016Z,6.10
2018-09-28T11:02:59.053Z,5.80
2018-09-28T11:04:02.043Z,5.75
2018-09-28T11:05:05.121Z,5.30
2018-09-28T11:06:08.205Z,5.80
2018-09-28T11:07:11.251Z,5.70
2018-09-28T11:08:14.292Z,5.37
2018-09-28T11:09:17.412Z,5.12
2018-09-28T11:10:20.476Z,4.30
2018-09-28T11:11:23.557Z,5.33
2018-09-28T11:12:26.747Z,5.08
2018-09-28T11:13:29.779Z,5.35
2018-09-28T11:14:32.836Z,4.87
2018-09-28T11:15:36.002Z,4.97
2018-09-28T11:16:39.481Z,4.83
2018-09-28T11:17:42.470Z,4.72
2018-09-28T11:18:45.513Z,5.00
2018-09-28T11:19:48.606Z,4.95
2018-09-28T11:20:51.655Z,5.30
2018-09-28T11:21:54.622Z,4.70
2018-09-28T11:22:57.666Z,4.78
2018-09-28T11:24:00.645Z,4.42
2018-09-28T11:25:03.632Z,4.40
2018-09-28T11:26:06.631Z,4.30
2018-09-28T11:27:09.789Z,4.67
2018-09-28T11:28:12.760Z,4.50
2018-09-28T11:29:15.739Z,4.60
2018-09-28T11:30:18.789Z,4.45
2018-09-28T11:31:21.815Z,4.50
2018-09-28T11:32:24.807Z,4.42
2018-09-28T11:33:28.041Z,4.33
2018-09-28T11:34:30.972Z,3.97
2018-09-28T11:35:33.943Z,4.28
2018-09-28T11:36:36.967Z,3.70
2018-09-28T11:37:40.001Z,4.35
2018-09-28T11:38:42.986Z,4.17
2018-09-28T11:39:46.205Z,4.10
2018-09-28T11:40:49.219Z,4.15
2018-09-28T11:41:52.223Z,4.15
2018-09-28T11:42:55.311Z,3.92
2018-09-28T11:43:58.315Z,3.77
2018-09-28T11:45:01.373Z,3.42
2018-09-28T11:46:04.343Z,4.40
2018-09-28T11:47:07.401Z,3.08
2018-09-28T11:48:10.483Z,3.95
2018-09-28T11:49:13.695Z,3.83
2018-09-28T11:50:16.620Z,3.52
2018-09-28T11:51:19.725Z,3.60
2018-09-28T11:52:22.639Z,3.30
2018-09-28T11:53:25.939Z,3.67
2018-09-28T11:54:28.981Z,3.15
2018-09-28T11:55:32.162Z,3.52
2018-09-28T11:56:35.282Z,3.15
2018-09-28T11:57:38.408Z,3.17
2018-09-28T11:58:41.440Z,3.27
2018-09-28T11:59:44.441Z,3.35
2018-09-28T12:00:47.514Z,3.00
2018-09-28T12:01:50.624Z,3.00
2018-09-28T12:02:53.699Z,2.92
2018-09-28T12:03:56.758Z,2.92
2018-09-28T12:04:59.789Z,3.17
2018-09-28T12:06:02.833Z,2.77
2018-09-28T12:07:05.867Z,3.00
2018-09-28T12:08:08.911Z,2.70
2018-09-28T12:09:13.385Z,2.67
2018-09-28T12:10:16.427Z,2.67
2018-09-28T12:11:19.597Z,2.50
2018-09-28T12:12:22.700Z,2.85
2018-09-28T12:13:25.696Z,2.77
2018-09-28T12:14:28.676Z,2.70
2018-09-28T12:15:31.824Z,2.75
2018-09-28T12:16:34.842Z,2.45
2018-09-28T12:17:37.821Z,2.60
2018-09-28T12:18:41.501Z,2.50
2018-09-28T12:19:44.503Z,2.37
2018-09-28T12:20:47.543Z,2.60
2018-09-28T12:21:50.625Z,2.75
2018-09-28T12:22:53.655Z,2.40
2018-09-28T12:23:56.738Z,2.60
2018-09-28T12:24:59.782Z,2.70
2018-09-28T12:26:02.960Z,2.60
2018-09-28T12:27:06.069Z,2.22
2018-09-28T12:28:09.047Z,2.52
2018-09-28T12:29:12.063Z,2.37
2018-09-28T12:30:15.132Z,2.30
2018-09-28T12:31:18.251Z,2.40
2018-09-28T12:32:21.222Z,2.30
2018-09-28T12:33:24.272Z,2.30
2018-09-28T12:34:27.303Z,2.35
2018-09-28T12:35:30.345Z,2.15
2018-09-28T12:36:33.484Z,2.20
2018-09-28T12:37:36.531Z,2.20
2018-09-28T12:38:39.715Z,2.20
2018-09-28T12:39:42.880Z,2.10
2018-09-28T12:40:45.912Z,2.10
2018-09-28T12:41:48.971Z,2.22
2018-09-28T12:42:52.073Z,2.00
2018-09-28T12:43:54.991Z,2.10
2018-09-28T12:44:58.077Z,2.40
2018-09-28T12:46:01.228Z,2.20
2018-09-28T12:47:04.248Z,1.90
2018-09-28T12:48:07.250Z,2.15
2018-09-28T12:49:10.337Z,2.10
2018-09-28T12:50:13.444Z,1.95
2018-09-28T12:51:16.497Z,1.70
2018-09-28T12:52:19.583Z,1.75
2018-09-28T12:53:22.684Z,1.80
2018-09-28T12:54:25.783Z,1.90
2018-09-28T12:55:28.762Z,2.00
2018-09-28T12:56:31.789Z,2.00
2018-09-28T12:57:34.797Z,1.95
2018-09-28T12:58:37.830Z,2.00
2018-09-28T12:59:40.855Z,1.90
2018-09-28T13:00:43.887Z,1.92
2018-09-28T13:01:46.939Z,2.00
2018-09-28T13:02:50.035Z,2.05
2018-09-28T13:03:53.055Z,1.87
2018-09-28T13:04:56.086Z,1.67
2018-09-28T13:05:59.082Z,2.20
2018-09-28T13:07:02.108Z,2.05
2018-09-28T13:08:05.323Z,2.00
2018-09-28T13:09:08.424Z,2.20
2018-09-28T13:10:11.487Z,2.10
2018-09-28T13:11:14.534Z,2.10
2018-09-28T13:12:17.548Z,1.98
2018-09-28T13:13:20.534Z,2.00
2018-09-28T13:14:23.871Z,1.90
2018-09-28T13:15:26.855Z,2.00
2018-09-28T13:16:31.032Z,1.90
2018-09-28T13:17:35.028Z,1.85
2018-09-28T13:18:38.479Z,2.10
2018-09-28T13:19:41.541Z,2.02
2018-09-28T13:20:44.688Z,1.62
2018-09-28T13:21:47.832Z,1.52
2018-09-28T13:22:50.976Z,1.90
2018-09-28T13:23:53.978Z,2.20
2018-09-28T13:24:57.030Z,1.75
2018-09-28T13:26:01.031Z,1.95
2018-09-28T13:27:04.202Z,2.05
2018-09-28T13:28:07.194Z,1.95
2018-09-28T13:29:11.244Z,1.80
2018-09-28T13:30:14.288Z,1.98
2018-09-28T13:31:17.559Z,2.20
2018-09-28T13:32:20.883Z,2.25
2018-09-28T13:33:24.099Z,1.95
2018-09-28T13:34:27.144Z,1.98
2018-09-28T13:35:30.095Z,2.12
2018-09-28T13:36:33.176Z,1.80
2018-09-28T13:37:36.287Z,1.90
2018-09-28T13:38:39.592Z,1.98
2018-09-28T13:39:42.393Z,1.87
2018-09-28T13:40:45.416Z,2.05
2018-09-28T13:41:48.461Z,2.20
2018-09-28T13:42:51.439Z,2.02
2018-09-28T13:43:54.537Z,2.33
2018-09-28T13:44:57.748Z,2.40
2018-09-28T13:46:00.993Z,1.95
2018-09-28T13:47:03.990Z,2.05
2018-09-28T13:48:07.071Z,2.08
2018-09-28T13:49:10.106Z,2.15
2018-09-28T13:50:13.231Z,2.10
2018-09-28T13:51:16.481Z,1.82
2018-09-28T13:52:19.626Z,2.20
2018-09-28T13:53:22.745Z,2.02
2018-09-28T13:54:25.819Z,2.10
2018-09-28T13:55:28.766Z,2.27
2018-09-28T13:56:31.822Z,1.92
2018-09-28T13:57:34.929Z,2.20
2018-09-28T13:58:37.906Z,2.00
2018-09-28T13:59:40.917Z,1.72
2018-09-28T14:00:44.008Z,1.98
2018-09-28T14:01:47.001Z,2.02
2018-09-28T14:02:50.095Z,2.10
2018-09-28T14:03:53.094Z,2.02